sensor_id;sensor_type;location;lat;lon;timestamp;pressure;altitude;pressure_sealevel;temperature;humidity
37200;BME280;23096;50.892;16.746;2023-01-31T00:00:29;98722.86;;;3.01;75.62
37200;BME280;23096;50.892;16.746;2023-01-31T00:02:54;98716.45;;;2.98;75.42
37200;BME280;23096;50.892;16.746;2023-01-31T00:05:19;98721.06;;;2.94;75.48
37200;BME280;23096;50.892;16.746;2023-01-31T00:07:45;98723.82;;;2.90;75.49
37200;BME280;23096;50.892;16.746;2023-01-31T00:10:12;98721.29;;;2.88;75.43
37200;BME280;23096;50.892;16.746;2023-01-31T00:12:37;98714.53;;;2.85;75.44
37200;BME280;23096;50.892;16.746;2023-01-31T00:15:03;98723.20;;;2.82;75.31
37200;BME280;23096;50.892;16.746;2023-01-31T00:17:28;98726.46;;;2.79;75.48
37200;BME280;23096;50.892;16.746;2023-01-31T00:19:54;98724.44;;;2.76;75.37
37200;BME280;23096;50.892;16.746;2023-01-31T00:22:19;98725.33;;;2.73;75.32
37200;BME280;23096;50.892;16.746;2023-01-31T00:24:45;98730.59;;;2.70;75.36
37200;BME280;23096;50.892;16.746;2023-01-31T00:27:10;98732.31;;;2.69;75.34
37200;BME280;23096;50.892;16.746;2023-01-31T00:29:35;98727.57;;;2.68;75.37
37200;BME280;23096;50.892;16.746;2023-01-31T00:32:04;98733.33;;;2.68;75.41
37200;BME280;23096;50.892;16.746;2023-01-31T00:34:29;98724.52;;;2.68;75.42
37200;BME280;23096;50.892;16.746;2023-01-31T00:36:54;98732.48;;;2.68;75.36
37200;BME280;23096;50.892;16.746;2023-01-31T00:39:20;98731.80;;;2.67;75.35
37200;BME280;23096;50.892;16.746;2023-01-31T00:41:45;98735.71;;;2.66;75.28
37200;BME280;23096;50.892;16.746;2023-01-31T00:44:11;98740.63;;;2.66;75.30
37200;BME280;23096;50.892;16.746;2023-01-31T00:46:37;98737.75;;;2.66;75.26
37200;BME280;23096;50.892;16.746;2023-01-31T00:49:02;98734.37;;;2.66;75.30
37200;BME280;23096;50.892;16.746;2023-01-31T00:51:28;98741.14;;;2.66;75.21
37200;BME280;23096;50.892;16.746;2023-01-31T00:53:53;98737.94;;;2.67;75.16
37200;BME280;23096;50.892;16.746;2023-01-31T00:56:20;98736.55;;;2.67;75.17
37200;BME280;23096;50.892;16.746;2023-01-31T00:58:47;98749.11;;;2.68;75.32
37200;BME280;23096;50.892;16.746;2023-01-31T01:01:17;98746.38;;;2.69;75.26
37200;BME280;23096;50.892;16.746;2023-01-31T01:03:44;98761.97;;;2.70;75.08
37200;BME280;23096;50.892;16.746;2023-01-31T01:06:10;98772.49;;;2.71;75.06
37200;BME280;23096;50.892;16.746;2023-01-31T01:08:36;98770.95;;;2.71;75.17
37200;BME280;23096;50.892;16.746;2023-01-31T01:13:30;98781.48;;;2.70;75.03
37200;BME280;23096;50.892;16.746;2023-01-31T01:15:56;98784.54;;;2.70;75.03
37200;BME280;23096;50.892;16.746;2023-01-31T01:18:21;98784.87;;;2.71;74.98
37200;BME280;23096;50.892;16.746;2023-01-31T01:20:47;98798.27;;;2.70;74.94
37200;BME280;23096;50.892;16.746;2023-01-31T01:23:12;98799.64;;;2.70;74.91
37200;BME280;23096;50.892;16.746;2023-01-31T01:25:42;98796.74;;;2.70;74.87
37200;BME280;23096;50.892;16.746;2023-01-31T01:28:07;98806.27;;;2.69;74.89
37200;BME280;23096;50.892;16.746;2023-01-31T01:30:33;98810.17;;;2.67;74.86
37200;BME280;23096;50.892;16.746;2023-01-31T01:33:00;98810.52;;;2.65;74.69
37200;BME280;23096;50.892;16.746;2023-01-31T01:35:26;98812.76;;;2.61;74.69
37200;BME280;23096;50.892;16.746;2023-01-31T01:37:51;98816.84;;;2.60;74.66
37200;BME280;23096;50.892;16.746;2023-01-31T01:40:17;98820.08;;;2.59;74.62
37200;BME280;23096;50.892;16.746;2023-01-31T01:42:42;98826.34;;;2.59;74.63
37200;BME280;23096;50.892;16.746;2023-01-31T01:45:12;98825.16;;;2.58;74.60
37200;BME280;23096;50.892;16.746;2023-01-31T01:52:32;98828.41;;;2.52;74.57
37200;BME280;23096;50.892;16.746;2023-01-31T01:54:59;98835.55;;;2.49;74.61
37200;BME280;23096;50.892;16.746;2023-01-31T01:57:30;98840.64;;;2.48;74.50
37200;BME280;23096;50.892;16.746;2023-01-31T02:02:26;98847.27;;;2.48;74.56
37200;BME280;23096;50.892;16.746;2023-01-31T02:04:52;98859.13;;;2.48;74.55
37200;BME280;23096;50.892;16.746;2023-01-31T02:07:17;98864.05;;;2.47;74.48
37200;BME280;23096;50.892;16.746;2023-01-31T02:09:56;98868.80;;;2.46;74.43
37200;BME280;23096;50.892;16.746;2023-01-31T02:12:26;98874.23;;;2.44;74.54
37200;BME280;23096;50.892;16.746;2023-01-31T02:14:51;98876.60;;;2.43;74.53
37200;BME280;23096;50.892;16.746;2023-01-31T02:17:18;98879.34;;;2.42;74.45
37200;BME280;23096;50.892;16.746;2023-01-31T02:22:25;98883.06;;;2.39;74.24
37200;BME280;23096;50.892;16.746;2023-01-31T02:40:22;98908.35;;;2.37;74.05
37200;BME280;23096;50.892;16.746;2023-01-31T02:45:38;98914.28;;;2.35;73.93
37200;BME280;23096;50.892;16.746;2023-01-31T02:53:27;98939.05;;;2.30;73.78
37200;BME280;23096;50.892;16.746;2023-01-31T02:55:54;98950.74;;;2.30;73.73
37200;BME280;23096;50.892;16.746;2023-01-31T02:58:54;98953.80;;;2.30;73.71
37200;BME280;23096;50.892;16.746;2023-01-31T03:01:25;98954.31;;;2.29;73.55
37200;BME280;23096;50.892;16.746;2023-01-31T03:03:53;98960.94;;;2.27;73.53
37200;BME280;23096;50.892;16.746;2023-01-31T03:11:18;98973.48;;;2.27;73.52
37200;BME280;23096;50.892;16.746;2023-01-31T03:16:26;98988.06;;;2.23;73.41
37200;BME280;23096;50.892;16.746;2023-01-31T03:19:15;98990.29;;;2.19;73.32
37200;BME280;23096;50.892;16.746;2023-01-31T03:21:46;98993.50;;;2.16;73.16
37200;BME280;23096;50.892;16.746;2023-01-31T03:24:14;98989.27;;;2.15;73.23
37200;BME280;23096;50.892;16.746;2023-01-31T03:26:42;98989.45;;;2.13;73.19
37200;BME280;23096;50.892;16.746;2023-01-31T03:29:08;98989.44;;;2.11;73.23
37200;BME280;23096;50.892;16.746;2023-01-31T03:31:36;98993.69;;;2.08;73.22
37200;BME280;23096;50.892;16.746;2023-01-31T03:34:04;99000.29;;;2.06;73.18
37200;BME280;23096;50.892;16.746;2023-01-31T03:41:42;99004.55;;;2.02;73.19
37200;BME280;23096;50.892;16.746;2023-01-31T03:44:35;99004.20;;;1.99;73.15
37200;BME280;23096;50.892;16.746;2023-01-31T03:46:59;99009.96;;;1.97;73.20
37200;BME280;23096;50.892;16.746;2023-01-31T03:49:26;99011.16;;;1.96;73.10
37200;BME280;23096;50.892;16.746;2023-01-31T03:51:56;99008.44;;;1.94;73.09
37200;BME280;23096;50.892;16.746;2023-01-31T03:54:28;99019.62;;;1.91;73.25
37200;BME280;23096;50.892;16.746;2023-01-31T03:56:57;99017.25;;;1.88;73.29
37200;BME280;23096;50.892;16.746;2023-01-31T03:59:25;99018.44;;;1.87;73.21
37200;BME280;23096;50.892;16.746;2023-01-31T04:01:52;99017.59;;;1.86;73.41
37200;BME280;23096;50.892;16.746;2023-01-31T04:06:45;99019.11;;;1.81;73.29
37200;BME280;23096;50.892;16.746;2023-01-31T04:09:13;99019.63;;;1.77;73.30
37200;BME280;23096;50.892;16.746;2023-01-31T04:11:39;99022.85;;;1.73;73.40
37200;BME280;23096;50.892;16.746;2023-01-31T04:14:05;99024.88;;;1.69;73.45
37200;BME280;23096;50.892;16.746;2023-01-31T04:16:31;99025.38;;;1.67;73.47
37200;BME280;23096;50.892;16.746;2023-01-31T04:18:57;99032.16;;;1.65;73.45
37200;BME280;23096;50.892;16.746;2023-01-31T04:21:22;99030.98;;;1.62;73.52
37200;BME280;23096;50.892;16.746;2023-01-31T04:23:48;99032.14;;;1.59;73.48
37200;BME280;23096;50.892;16.746;2023-01-31T04:26:13;99040.10;;;1.58;73.61
37200;BME280;23096;50.892;16.746;2023-01-31T04:28:39;99044.16;;;1.58;73.69
37200;BME280;23096;50.892;16.746;2023-01-31T04:31:04;99047.21;;;1.57;73.60
37200;BME280;23096;50.892;16.746;2023-01-31T04:33:30;99051.96;;;1.57;73.66
37200;BME280;23096;50.892;16.746;2023-01-31T04:35:55;99053.14;;;1.57;73.58
37200;BME280;23096;50.892;16.746;2023-01-31T04:38:21;99064.15;;;1.56;73.66
37200;BME280;23096;50.892;16.746;2023-01-31T04:40:47;99067.86;;;1.54;73.70
37200;BME280;23096;50.892;16.746;2023-01-31T04:43:12;99064.47;;;1.53;73.59
37200;BME280;23096;50.892;16.746;2023-01-31T04:45:38;99070.06;;;1.52;73.62
37200;BME280;23096;50.892;16.746;2023-01-31T04:48:04;99075.30;;;1.50;73.72
37200;BME280;23096;50.892;16.746;2023-01-31T04:50:29;99076.14;;;1.47;73.70
37200;BME280;23096;50.892;16.746;2023-01-31T04:52:55;99080.73;;;1.44;73.72
37200;BME280;23096;50.892;16.746;2023-01-31T04:55:22;99083.59;;;1.42;73.64
37200;BME280;23096;50.892;16.746;2023-01-31T04:57:48;99087.46;;;1.39;73.64
37200;BME280;23096;50.892;16.746;2023-01-31T05:00:13;99086.10;;;1.37;73.68
37200;BME280;23096;50.892;16.746;2023-01-31T05:02:39;99090.83;;;1.34;73.75
37200;BME280;23096;50.892;16.746;2023-01-31T05:05:04;99096.25;;;1.34;73.90
37200;BME280;23096;50.892;16.746;2023-01-31T05:07:30;99096.42;;;1.34;73.80
37200;BME280;23096;50.892;16.746;2023-01-31T05:09:55;99094.56;;;1.32;73.92
37200;BME280;23096;50.892;16.746;2023-01-31T05:12:21;99095.58;;;1.31;74.02
37200;BME280;23096;50.892;16.746;2023-01-31T05:18:05;99088.28;;;1.27;73.96
37200;BME280;23096;50.892;16.746;2023-01-31T05:20:31;99087.25;;;1.25;73.96
37200;BME280;23096;50.892;16.746;2023-01-31T05:22:58;99091.82;;;1.23;74.02
37200;BME280;23096;50.892;16.746;2023-01-31T05:25:24;99095.89;;;1.23;74.06
37200;BME280;23096;50.892;16.746;2023-01-31T05:27:50;99094.70;;;1.23;74.10
37200;BME280;23096;50.892;16.746;2023-01-31T05:30:16;99098.60;;;1.22;74.15
37200;BME280;23096;50.892;16.746;2023-01-31T05:32:41;99106.71;;;1.21;74.10
37200;BME280;23096;50.892;16.746;2023-01-31T05:35:10;99108.55;;;1.21;74.16
37200;BME280;23096;50.892;16.746;2023-01-31T05:37:35;99116.67;;;1.20;74.15
37200;BME280;23096;50.892;16.746;2023-01-31T05:40:01;99113.13;;;1.19;74.26
37200;BME280;23096;50.892;16.746;2023-01-31T05:42:26;99113.30;;;1.19;74.26
37200;BME280;23096;50.892;16.746;2023-01-31T05:44:51;99117.70;;;1.17;74.27
37200;BME280;23096;50.892;16.746;2023-01-31T05:47:17;99122.60;;;1.15;74.25
37200;BME280;23096;50.892;16.746;2023-01-31T05:49:42;99117.34;;;1.13;74.32
37200;BME280;23096;50.892;16.746;2023-01-31T05:52:08;99130.70;;;1.11;74.35
37200;BME280;23096;50.892;16.746;2023-01-31T05:54:33;99131.03;;;1.09;74.38
37200;BME280;23096;50.892;16.746;2023-01-31T05:56:59;99134.05;;;1.08;74.41
37200;BME280;23096;50.892;16.746;2023-01-31T05:59:24;99139.98;;;1.07;74.52
37200;BME280;23096;50.892;16.746;2023-01-31T06:01:50;99140.66;;;1.06;74.55
37200;BME280;23096;50.892;16.746;2023-01-31T06:04:17;99139.45;;;1.03;74.52
37200;BME280;23096;50.892;16.746;2023-01-31T06:06:42;99145.20;;;1.02;74.53
37200;BME280;23096;50.892;16.746;2023-01-31T06:09:09;99156.69;;;1.00;74.55
37200;BME280;23096;50.892;16.746;2023-01-31T06:11:35;99158.88;;;0.98;74.59
37200;BME280;23096;50.892;16.746;2023-01-31T06:14:01;99155.98;;;0.97;74.62
37200;BME280;23096;50.892;16.746;2023-01-31T06:16:26;99158.36;;;0.97;74.63
37200;BME280;23096;50.892;16.746;2023-01-31T06:18:52;99157.00;;;0.94;74.62
37200;BME280;23096;50.892;16.746;2023-01-31T06:21:19;99156.65;;;0.91;74.67
37200;BME280;23096;50.892;16.746;2023-01-31T06:23:45;99161.36;;;0.89;74.65
37200;BME280;23096;50.892;16.746;2023-01-31T06:26:12;99166.11;;;0.88;74.70
37200;BME280;23096;50.892;16.746;2023-01-31T06:28:37;99164.58;;;0.88;74.77
37200;BME280;23096;50.892;16.746;2023-01-31T06:31:09;99164.59;;;0.88;74.79
37200;BME280;23096;50.892;16.746;2023-01-31T06:33:35;99165.77;;;0.87;74.78
37200;BME280;23096;50.892;16.746;2023-01-31T06:36:00;99159.32;;;0.86;74.78
37200;BME280;23096;50.892;16.746;2023-01-31T06:38:26;99167.61;;;0.88;74.84
37200;BME280;23096;50.892;16.746;2023-01-31T06:40:52;99168.30;;;0.89;74.86
37200;BME280;23096;50.892;16.746;2023-01-31T06:43:17;99171.51;;;0.89;74.84
37200;BME280;23096;50.892;16.746;2023-01-31T06:45:42;99171.85;;;0.88;74.78
37200;BME280;23096;50.892;16.746;2023-01-31T06:48:09;99176.92;;;0.88;74.85
37200;BME280;23096;50.892;16.746;2023-01-31T06:50:34;99182.67;;;0.88;74.77
37200;BME280;23096;50.892;16.746;2023-01-31T06:53:00;99186.39;;;0.88;74.83
37200;BME280;23096;50.892;16.746;2023-01-31T06:55:25;99190.63;;;0.87;74.79
37200;BME280;23096;50.892;16.746;2023-01-31T06:57:50;99193.99;;;0.89;74.84
37200;BME280;23096;50.892;16.746;2023-01-31T07:00:16;99199.42;;;0.90;74.87
37200;BME280;23096;50.892;16.746;2023-01-31T07:02:45;99197.92;;;0.90;74.85
37200;BME280;23096;50.892;16.746;2023-01-31T07:05:10;99206.04;;;0.91;74.93
37200;BME280;23096;50.892;16.746;2023-01-31T07:07:35;99204.35;;;0.93;74.92
37200;BME280;23096;50.892;16.746;2023-01-31T07:10:01;99197.61;;;0.95;75.06
37200;BME280;23096;50.892;16.746;2023-01-31T07:12:26;99199.83;;;0.99;75.12
37200;BME280;23096;50.892;16.746;2023-01-31T07:14:52;99205.10;;;1.02;75.08
37200;BME280;23096;50.892;16.746;2023-01-31T07:17:17;99209.18;;;1.07;75.14
37200;BME280;23096;50.892;16.746;2023-01-31T07:19:45;99213.44;;;1.12;75.09
37200;BME280;23096;50.892;16.746;2023-01-31T07:22:10;99227.36;;;1.19;75.18
37200;BME280;23096;50.892;16.746;2023-01-31T07:24:36;99227.38;;;1.24;75.08
37200;BME280;23096;50.892;16.746;2023-01-31T07:27:01;99229.42;;;1.27;75.13
37200;BME280;23096;50.892;16.746;2023-01-31T07:29:27;99231.64;;;1.29;75.15
37200;BME280;23096;50.892;16.746;2023-01-31T07:31:55;99232.34;;;1.34;75.18
37200;BME280;23096;50.892;16.746;2023-01-31T07:34:22;99237.12;;;1.41;75.19
37200;BME280;23096;50.892;16.746;2023-01-31T07:36:50;99242.23;;;1.47;75.19
37200;BME280;23096;50.892;16.746;2023-01-31T07:39:16;99244.46;;;1.53;75.16
37200;BME280;23096;50.892;16.746;2023-01-31T07:41:41;99244.48;;;1.59;75.13
37200;BME280;23096;50.892;16.746;2023-01-31T07:44:07;99249.59;;;1.64;75.07
37200;BME280;23096;50.892;16.746;2023-01-31T07:46:34;99254.52;;;1.67;75.09
37200;BME280;23096;50.892;16.746;2023-01-31T07:49:00;99258.27;;;1.70;75.11
37200;BME280;23096;50.892;16.746;2023-01-31T07:51:25;99263.17;;;1.72;75.04
37200;BME280;23096;50.892;16.746;2023-01-31T07:53:50;99269.45;;;1.75;75.07
37200;BME280;23096;50.892;16.746;2023-01-31T07:56:17;99269.79;;;1.76;75.03
37200;BME280;23096;50.892;16.746;2023-01-31T07:58:45;99269.77;;;1.75;74.94
37200;BME280;23096;50.892;16.746;2023-01-31T08:01:12;99269.77;;;1.71;74.88
37200;BME280;23096;50.892;16.746;2023-01-31T08:03:58;99268.59;;;1.71;74.84
37200;BME280;23096;50.892;16.746;2023-01-31T08:06:23;99268.59;;;1.70;74.82
37200;BME280;23096;50.892;16.746;2023-01-31T08:08:49;99269.27;;;1.70;74.78
37200;BME280;23096;50.892;16.746;2023-01-31T08:11:14;99271.14;;;1.72;74.84
37200;BME280;23096;50.892;16.746;2023-01-31T08:13:40;99266.40;;;1.73;74.88
37200;BME280;23096;50.892;16.746;2023-01-31T08:16:06;99266.40;;;1.75;74.87
37200;BME280;23096;50.892;16.746;2023-01-31T08:18:32;99265.39;;;1.78;74.85
37200;BME280;23096;50.892;16.746;2023-01-31T08:20:58;99262.00;;;1.79;74.83
37200;BME280;23096;50.892;16.746;2023-01-31T08:23:24;99266.42;;;1.80;74.91
37200;BME280;23096;50.892;16.746;2023-01-31T08:25:50;99266.27;;;1.81;74.89
37200;BME280;23096;50.892;16.746;2023-01-31T08:28:16;99265.92;;;1.84;74.89
37200;BME280;23096;50.892;16.746;2023-01-31T08:30:42;99270.34;;;1.86;74.87
37200;BME280;23096;50.892;16.746;2023-01-31T08:33:08;99277.98;;;1.89;74.95
37200;BME280;23096;50.892;16.746;2023-01-31T08:35:33;99275.77;;;1.91;74.94
37200;BME280;23096;50.892;16.746;2023-01-31T08:37:58;99277.48;;;1.94;74.90
37200;BME280;23096;50.892;16.746;2023-01-31T08:40:24;99276.82;;;1.98;74.95
37200;BME280;23096;50.892;16.746;2023-01-31T08:42:52;99281.58;;;2.03;74.95
37200;BME280;23096;50.892;16.746;2023-01-31T08:45:17;99287.70;;;2.09;75.01
37200;BME280;23096;50.892;16.746;2023-01-31T08:47:43;99294.66;;;2.16;74.99
37200;BME280;23096;50.892;16.746;2023-01-31T08:50:08;99297.73;;;2.19;74.93
37200;BME280;23096;50.892;16.746;2023-01-31T08:52:34;99306.39;;;2.23;74.95
37200;BME280;23096;50.892;16.746;2023-01-31T08:55:00;99306.23;;;2.26;74.83
37200;BME280;23096;50.892;16.746;2023-01-31T08:57:25;99315.05;;;2.29;74.83
37200;BME280;23096;50.892;16.746;2023-01-31T08:59:50;99318.45;;;2.35;74.91
37200;BME280;23096;50.892;16.746;2023-01-31T09:02:16;99322.04;;;2.44;74.93
37200;BME280;23096;50.892;16.746;2023-01-31T09:04:41;99315.95;;;2.52;74.96
37200;BME280;23096;50.892;16.746;2023-01-31T09:07:06;99323.08;;;2.55;74.78
37200;BME280;23096;50.892;16.746;2023-01-31T09:09:32;99321.02;;;2.50;74.64
37200;BME280;23096;50.892;16.746;2023-01-31T09:11:57;99327.46;;;2.45;74.53
37200;BME280;23096;50.892;16.746;2023-01-31T09:14:23;99327.44;;;2.39;74.52
37200;BME280;23096;50.892;16.746;2023-01-31T09:16:48;99329.96;;;2.30;74.36
37200;BME280;23096;50.892;16.746;2023-01-31T09:19:13;99330.61;;;2.20;74.28
37200;BME280;23096;50.892;16.746;2023-01-31T09:21:39;99340.21;;;2.06;74.16
37200;BME280;23096;50.892;16.746;2023-01-31T09:24:04;99339.66;;;1.95;74.26
37200;BME280;23096;50.892;16.746;2023-01-31T09:26:30;99346.23;;;1.85;74.26
37200;BME280;23096;50.892;16.746;2023-01-31T09:28:56;99343.32;;;1.80;74.36
37200;BME280;23096;50.892;16.746;2023-01-31T09:31:23;99345.67;;;1.77;74.48
37200;BME280;23096;50.892;16.746;2023-01-31T09:33:48;99346.35;;;1.76;74.60
37200;BME280;23096;50.892;16.746;2023-01-31T09:36:14;99343.13;;;1.75;74.68
37200;BME280;23096;50.892;16.746;2023-01-31T09:38:40;99336.02;;;1.77;74.85
37200;BME280;23096;50.892;16.746;2023-01-31T09:44:36;99339.95;;;1.83;74.96
37200;BME280;23096;50.892;16.746;2023-01-31T09:46:37;99339.29;;;1.87;75.07
37200;BME280;23096;50.892;16.746;2023-01-31T09:49:06;99342.19;;;1.91;75.17
37200;BME280;23096;50.892;16.746;2023-01-31T09:51:33;99343.05;;;1.96;75.26
37200;BME280;23096;50.892;16.746;2023-01-31T09:53:59;99342.23;;;2.00;75.27
37200;BME280;23096;50.892;16.746;2023-01-31T09:56:39;99346.30;;;2.02;75.36
37200;BME280;23096;50.892;16.746;2023-01-31T10:09:36;99329.42;;;2.18;75.67
37200;BME280;23096;50.892;16.746;2023-01-31T10:12:11;99327.05;;;2.22;75.64
37200;BME280;23096;50.892;16.746;2023-01-31T10:17:14;99323.52;;;2.30;75.76
37200;BME280;23096;50.892;16.746;2023-01-31T10:22:19;99319.81;;;2.38;75.66
37200;BME280;23096;50.892;16.746;2023-01-31T10:24:48;99325.41;;;2.40;75.66
37200;BME280;23096;50.892;16.746;2023-01-31T10:30:00;99322.04;;;2.47;75.67
37200;BME280;23096;50.892;16.746;2023-01-31T10:32:29;99321.20;;;2.51;75.67
37200;BME280;23096;50.892;16.746;2023-01-31T10:35:02;99317.98;;;2.53;75.70
37200;BME280;23096;50.892;16.746;2023-01-31T10:39:57;99316.80;;;2.58;75.67
37200;BME280;23096;50.892;16.746;2023-01-31T10:42:29;99312.91;;;2.61;75.66
37200;BME280;23096;50.892;16.746;2023-01-31T10:49:57;99307.48;;;2.71;75.63
37200;BME280;23096;50.892;16.746;2023-01-31T10:52:37;99305.63;;;2.75;75.59
37200;BME280;23096;50.892;16.746;2023-01-31T10:57:51;99305.12;;;2.81;75.57
37200;BME280;23096;50.892;16.746;2023-01-31T11:00:18;99306.65;;;2.82;75.47
37200;BME280;23096;50.892;16.746;2023-01-31T11:02:44;99300.88;;;2.82;75.44
37200;BME280;23096;50.892;16.746;2023-01-31T11:05:13;99301.39;;;2.80;75.46
37200;BME280;23096;50.892;16.746;2023-01-31T11:07:40;99301.22;;;2.80;75.39
37200;BME280;23096;50.892;16.746;2023-01-31T11:10:25;99297.65;;;2.78;75.40
37200;BME280;23096;50.892;16.746;2023-01-31T11:12:52;99304.27;;;2.76;75.37
37200;BME280;23096;50.892;16.746;2023-01-31T11:15:19;99301.54;;;2.70;75.20
37200;BME280;23096;50.892;16.746;2023-01-31T11:17:45;99296.28;;;2.63;75.23
37200;BME280;23096;50.892;16.746;2023-01-31T11:20:19;99292.05;;;2.60;75.36
37200;BME280;23096;50.892;16.746;2023-01-31T11:22:45;99290.00;;;2.59;75.33
37200;BME280;23096;50.892;16.746;2023-01-31T11:25:14;99285.60;;;2.59;75.39
37200;BME280;23096;50.892;16.746;2023-01-31T11:27:42;99287.80;;;2.56;75.47
37200;BME280;23096;50.892;16.746;2023-01-31T11:30:19;99281.85;;;2.53;75.46
37200;BME280;23096;50.892;16.746;2023-01-31T11:32:45;99277.79;;;2.50;75.47
37200;BME280;23096;50.892;16.746;2023-01-31T11:37:39;99264.38;;;2.48;75.58
37200;BME280;23096;50.892;16.746;2023-01-31T11:40:25;99263.02;;;2.48;75.57
37200;BME280;23096;50.892;16.746;2023-01-31T11:42:52;99256.91;;;2.48;75.68
37200;BME280;23096;50.892;16.746;2023-01-31T11:45:19;99253.54;;;2.49;75.80
37200;BME280;23096;50.892;16.746;2023-01-31T11:47:45;99252.35;;;2.50;75.88
37200;BME280;23096;50.892;16.746;2023-01-31T11:50:23;99245.40;;;2.51;75.85
37200;BME280;23096;50.892;16.746;2023-01-31T11:53:02;99247.94;;;2.54;75.97
37200;BME280;23096;50.892;16.746;2023-01-31T11:55:35;99243.54;;;2.57;75.99
37200;BME280;23096;50.892;16.746;2023-01-31T11:58:02;99239.98;;;2.60;76.15
37200;BME280;23096;50.892;16.746;2023-01-31T12:00:31;99237.25;;;2.62;76.10
37200;BME280;23096;50.892;16.746;2023-01-31T12:03:01;99234.05;;;2.66;76.13
37200;BME280;23096;50.892;16.746;2023-01-31T12:05:33;99225.05;;;2.70;76.25
37200;BME280;23096;50.892;16.746;2023-01-31T12:07:59;99218.42;;;2.74;76.29
37200;BME280;23096;50.892;16.746;2023-01-31T12:12:50;99212.81;;;2.82;76.41
37200;BME280;23096;50.892;16.746;2023-01-31T12:15:16;99210.10;;;2.85;76.39
37200;BME280;23096;50.892;16.746;2023-01-31T12:17:42;99210.45;;;2.90;76.56
37200;BME280;23096;50.892;16.746;2023-01-31T12:23:08;99200.58;;;2.96;76.55
37200;BME280;23096;50.892;16.746;2023-01-31T12:28:18;99188.36;;;3.00;76.60
37200;BME280;23096;50.892;16.746;2023-01-31T12:30:53;99185.14;;;3.00;76.58
37200;BME280;23096;50.892;16.746;2023-01-31T12:36:10;99179.02;;;3.04;76.55
37200;BME280;23096;50.892;16.746;2023-01-31T12:38:57;99174.94;;;3.05;76.51
37200;BME280;23096;50.892;16.746;2023-01-31T12:41:38;99170.36;;;3.05;76.56
37200;BME280;23096;50.892;16.746;2023-01-31T12:44:23;99170.36;;;3.09;76.63
37200;BME280;23096;50.892;16.746;2023-01-31T12:49:47;99171.02;;;3.13;76.50
37200;BME280;23096;50.892;16.746;2023-01-31T13:00:08;99144.70;;;3.18;76.47
37200;BME280;23096;50.892;16.746;2023-01-31T13:08:16;99133.48;;;3.22;76.43
37200;BME280;23096;50.892;16.746;2023-01-31T13:10:44;99129.90;;;3.22;76.38
37200;BME280;23096;50.892;16.746;2023-01-31T13:13:19;99122.44;;;3.22;76.44
37200;BME280;23096;50.892;16.746;2023-01-31T13:15:48;99119.54;;;3.23;76.30
37200;BME280;23096;50.892;16.746;2023-01-31T13:18:15;99113.09;;;3.22;76.25
37200;BME280;23096;50.892;16.746;2023-01-31T13:20:50;99113.60;;;3.24;76.24
37200;BME280;23096;50.892;16.746;2023-01-31T13:23:22;99107.84;;;3.23;76.16
37200;BME280;23096;50.892;16.746;2023-01-31T13:25:53;99107.14;;;3.24;76.15
37200;BME280;23096;50.892;16.746;2023-01-31T13:28:31;99105.95;;;3.24;76.12
37200;BME280;23096;50.892;16.746;2023-01-31T13:30:59;99100.02;;;3.24;75.99
37200;BME280;23096;50.892;16.746;2023-01-31T13:38:29;99079.80;;;3.26;75.86
37200;BME280;23096;50.892;16.746;2023-01-31T13:40:58;99078.77;;;3.28;75.91
37200;BME280;23096;50.892;16.746;2023-01-31T13:43:24;99069.95;;;3.27;75.78
37200;BME280;23096;50.892;16.746;2023-01-31T13:45:54;99063.16;;;3.28;75.76
37200;BME280;23096;50.892;16.746;2023-01-31T13:53:20;99053.13;;;3.29;75.61
37200;BME280;23096;50.892;16.746;2023-01-31T13:55:47;99053.81;;;3.30;75.51
37200;BME280;23096;50.892;16.746;2023-01-31T14:00:41;99058.91;;;3.30;75.42
37200;BME280;23096;50.892;16.746;2023-01-31T14:03:08;99056.52;;;3.31;75.42
37200;BME280;23096;50.892;16.746;2023-01-31T14:10:50;99058.38;;;3.36;75.20
37200;BME280;23096;50.892;16.746;2023-01-31T14:14:09;99055.48;;;3.36;75.20
37200;BME280;23096;50.892;16.746;2023-01-31T14:16:32;99053.44;;;3.36;75.14
37200;BME280;23096;50.892;16.746;2023-01-31T14:18:49;99054.11;;;3.37;75.07
37200;BME280;23096;50.892;16.746;2023-01-31T14:23:53;99048.15;;;3.38;74.93
37200;BME280;23096;50.892;16.746;2023-01-31T14:26:49;99044.92;;;3.39;74.99
37200;BME280;23096;50.892;16.746;2023-01-31T14:29:19;99040.16;;;3.40;74.90
37200;BME280;23096;50.892;16.746;2023-01-31T14:31:45;99039.31;;;3.41;74.88
37200;BME280;23096;50.892;16.746;2023-01-31T14:34:33;99038.12;;;3.43;74.80
37200;BME280;23096;50.892;16.746;2023-01-31T14:39:30;99036.75;;;3.45;74.86
37200;BME280;23096;50.892;16.746;2023-01-31T14:42:07;99033.50;;;3.46;74.75
37200;BME280;23096;50.892;16.746;2023-01-31T14:45:00;99025.88;;;3.45;74.60
37200;BME280;23096;50.892;16.746;2023-01-31T14:53:14;99019.81;;;3.36;74.53
37200;BME280;23096;50.892;16.746;2023-01-31T14:58:12;99012.21;;;3.29;74.48
37200;BME280;23096;50.892;16.746;2023-01-31T15:00:45;99014.10;;;3.24;74.46
37200;BME280;23096;50.892;16.746;2023-01-31T15:05:44;99019.40;;;3.20;74.45
37200;BME280;23096;50.892;16.746;2023-01-31T15:18:35;99021.23;;;2.94;74.44
37200;BME280;23096;50.892;16.746;2023-01-31T15:21:01;99021.59;;;2.88;74.43
37200;BME280;23096;50.892;16.746;2023-01-31T15:23:28;99021.11;;;2.84;74.53
37200;BME280;23096;50.892;16.746;2023-01-31T15:25:56;99018.40;;;2.80;74.56
37200;BME280;23096;50.892;16.746;2023-01-31T15:28:27;99022.31;;;2.78;74.61
37200;BME280;23096;50.892;16.746;2023-01-31T15:30:55;99022.51;;;2.75;74.65
37200;BME280;23096;50.892;16.746;2023-01-31T15:33:37;99030.48;;;2.72;74.55
37200;BME280;23096;50.892;16.746;2023-01-31T15:36:06;99028.97;;;2.67;74.65
37200;BME280;23096;50.892;16.746;2023-01-31T15:38:40;99027.63;;;2.63;74.71
37200;BME280;23096;50.892;16.746;2023-01-31T15:41:15;99026.97;;;2.56;74.64
37200;BME280;23096;50.892;16.746;2023-01-31T15:43:42;99022.23;;;2.50;74.74